Time;durP1;ratioP1;P1;durP2;ratioP2;P2;SDS_P1;SDS_P2;PMS_P1;PMS_P2;Temp;Humidity;BMP_temperature;BMP_pressure;BME280_temperature;BME280_humidity;BME280_pressure;Samples;Min_cycle;Max_cycle;Signal;HPM_P1;HPM_P2
2021/09/12 00:02:23;;;;;;;30.90;19.73;;;18.50;84.20;;;;;;5058909;28;20755;-78
2021/09/12 00:04:49;;;;;;;29.95;19.95;;;18.50;78.90;;;;;;5061921;28;20376;-77
2021/09/12 00:07:15;;;;;;;30.40;18.60;;;18.50;77.70;;;;;;5078366;28;20380;-76
2021/09/12 00:09:40;;;;;;;31.50;19.77;;;18.50;79.20;;;;;;5080810;28;20403;-78
2021/09/12 00:12:06;;;;;;;29.55;18.90;;;18.50;80.70;;;;;;5077982;28;20407;-77
2021/09/12 00:14:32;;;;;;;32.50;20.17;;;18.50;79.20;;;;;;5066320;28;20386;-76
2021/09/12 00:16:58;;;;;;;29.27;19.48;;;18.40;82.10;;;;;;5052963;28;20390;-76
2021/09/12 00:19:24;;;;;;;28.25;18.65;;;18.50;80.30;;;;;;5052599;28;20852;-76
2021/09/12 00:21:51;;;;;;;30.23;18.23;;;18.50;81.10;;;;;;5054642;28;20416;-77
2021/09/12 00:24:16;;;;;;;30.15;19.08;;;18.40;82.10;;;;;;5054000;28;20389;-78
2021/09/12 00:26:42;;;;;;;32.67;19.17;;;18.50;82.90;;;;;;5051146;28;20394;-76
2021/09/12 00:29:08;;;;;;;29.80;19.30;;;18.40;83.40;;;;;;5051818;28;20400;-76
2021/09/12 00:31:33;;;;;;;27.75;19.45;;;18.40;83.40;;;;;;5053508;28;20377;-77
2021/09/12 00:33:59;;;;;;;29.17;20.10;;;18.40;84.70;;;;;;5054390;28;20420;-77
2021/09/12 00:36:24;;;;;;;29.60;19.13;;;18.40;85.30;;;;;;5054236;28;20412;-76
2021/09/12 00:38:50;;;;;;;28.50;19.50;;;18.40;84.10;;;;;;5052844;28;20381;-77
2021/09/12 00:41:15;;;;;;;29.80;20.10;;;18.30;85.40;;;;;;5053663;28;20806;-75
2021/09/12 00:43:41;;;;;;;35.77;21.93;;;18.20;87.50;;;;;;5052682;28;20389;-77
2021/09/12 00:46:07;;;;;;;33.58;20.58;;;18.30;85.30;;;;;;5055636;28;20428;-78
2021/09/12 00:48:34;;;;;;;28.25;18.75;;;18.30;85.40;;;;;;5052436;28;20417;-77
2021/09/12 00:51:00;;;;;;;31.07;20.17;;;18.20;86.20;;;;;;5053143;28;20373;-76
2021/09/12 00:53:29;;;;;;;37.50;21.10;;;18.20;88.10;;;;;;5051277;28;20385;-76
2021/09/12 00:55:57;;;;;;;37.60;20.95;;;18.20;89.00;;;;;;5053845;28;20392;-76
2021/09/12 00:58:24;;;;;;;31.77;20.80;;;18.10;90.40;;;;;;5053758;28;20394;-76
2021/09/12 01:00:50;;;;;;;30.80;20.60;;;18.10;91.60;;;;;;5054546;28;20389;-77
2021/09/12 01:03:15;;;;;;;34.08;20.77;;;18.10;93.10;;;;;;5054505;28;20450;-76
2021/09/12 01:05:42;;;;;;;34.20;20.90;;;18.10;95.60;;;;;;5060500;28;20399;-77
2021/09/12 01:08:08;;;;;;;34.78;21.45;;;18.10;94.50;;;;;;5074908;28;20932;-76
2021/09/12 01:10:34;;;;;;;32.83;20.90;;;18.10;94.50;;;;;;5077680;28;20400;-78
2021/09/12 01:12:59;;;;;;;30.50;20.40;;;18.10;95.00;;;;;;5080360;28;20391;-78
2021/09/12 01:15:26;;;;;;;30.43;20.80;;;18.20;93.80;;;;;;5073166;28;20386;-77
2021/09/12 01:17:52;;;;;;;31.80;20.50;;;18.10;93.30;;;;;;5054982;28;20483;-78
2021/09/12 01:20:18;;;;;;;34.53;20.80;;;18.10;93.60;;;;;;5058831;28;20403;-78
2021/09/12 01:22:45;;;;;;;30.45;18.80;;;18.00;94.50;;;;;;5058267;28;20389;-76
2021/09/12 01:25:11;;;;;;;36.00;21.60;;;18.00;95.80;;;;;;5054846;28;20395;-78
2021/09/12 01:27:37;;;;;;;37.80;21.33;;;18.00;95.00;;;;;;5059146;28;20804;-78
2021/09/12 01:30:04;;;;;;;36.27;21.10;;;17.90;95.90;;;;;;5059124;28;20416;-78
2021/09/12 01:32:29;;;;;;;32.80;21.08;;;17.80;97.50;;;;;;5054002;28;20412;-77
2021/09/12 01:34:55;;;;;;;39.03;21.83;;;17.80;98.60;;;;;;5061253;28;20381;-76
2021/09/12 01:37:21;;;;;;;36.93;22.13;;;17.70;99.90;;;;;;5073514;28;20389;-77
2021/09/12 01:39:46;;;;;;;44.47;22.87;;;17.70;99.90;;;;;;5061800;28;20447;-76
2021/09/12 01:42:12;;;;;;;41.38;23.52;;;17.60;99.90;;;;;;5062172;28;20456;-77
2021/09/12 01:44:45;;;;;;;38.67;22.92;;;17.60;99.90;;;;;;5054707;28;20793;-76
2021/09/12 01:47:10;;;;;;;39.37;23.43;;;17.60;99.90;;;;;;5052239;28;20488;-78
2021/09/12 01:49:36;;;;;;;35.90;23.40;;;17.50;99.90;;;;;;5050995;28;20492;-78
2021/09/12 01:52:01;;;;;;;38.22;23.33;;;17.50;99.90;;;;;;5053064;28;20431;-78
2021/09/12 01:54:27;;;;;;;36.88;22.00;;;17.50;99.90;;;;;;5052460;28;20381;-77
2021/09/12 01:56:52;;;;;;;37.47;22.50;;;17.60;99.90;;;;;;5050972;28;20747;-78
2021/09/12 01:59:18;;;;;;;36.73;22.87;;;17.50;99.90;;;;;;5051158;28;20460;-76
2021/09/12 02:01:44;;;;;;;37.90;23.42;;;17.50;99.90;;;;;;5052120;28;20452;-78
2021/09/12 02:04:09;;;;;;;40.00;23.90;;;17.50;99.90;;;;;;5053133;28;20778;-78
2021/09/12 02:06:35;;;;;;;37.73;23.83;;;17.50;99.90;;;;;;5069665;28;20390;-78
2021/09/12 02:09:00;;;;;;;38.77;22.40;;;17.50;99.90;;;;;;5077350;28;20415;-76
2021/09/12 02:11:26;;;;;;;39.57;24.20;;;17.50;99.90;;;;;;5077448;28;20380;-77
2021/09/12 02:13:53;;;;;;;43.10;25.75;;;17.50;99.90;;;;;;5077369;28;20783;-77
2021/09/12 02:16:21;;;;;;;37.83;24.48;;;17.50;99.90;;;;;;5071683;28;20724;-77
2021/09/12 02:18:47;;;;;;;34.40;23.10;;;17.50;99.90;;;;;;5056933;28;20378;-77
2021/09/12 02:21:12;;;;;;;37.05;24.80;;;17.50;99.90;;;;;;5055904;28;20393;-78
2021/09/12 02:23:38;;;;;;;40.88;26.48;;;17.40;99.90;;;;;;5054253;28;20563;-78
2021/09/12 02:26:04;;;;;;;41.20;26.03;;;17.30;99.90;;;;;;5053429;28;20381;-76
2021/09/12 02:28:29;;;;;;;47.60;27.97;;;17.20;99.90;;;;;;5053858;28;20834;-77
2021/09/12 02:30:55;;;;;;;48.93;29.00;;;17.20;99.90;;;;;;5054193;28;20421;-76
2021/09/12 02:33:20;;;;;;;47.10;27.02;;;17.30;99.90;;;;;;5054190;28;20858;-77
2021/09/12 02:35:46;;;;;;;54.45;30.05;;;17.40;99.90;;;;;;5054365;28;20393;-77
2021/09/12 02:38:12;;;;;;;47.97;28.63;;;17.50;99.90;;;;;;5054505;28;20384;-78
2021/09/12 02:40:39;;;;;;;54.63;30.48;;;17.50;99.90;;;;;;5053305;28;20809;-77
2021/09/12 02:43:06;;;;;;;51.15;30.55;;;17.50;99.90;;;;;;5053966;28;20463;-77
2021/09/12 02:45:32;;;;;;;52.90;29.55;;;17.50;99.90;;;;;;5051834;28;20395;-77
2021/09/12 02:47:58;;;;;;;50.53;28.60;;;17.70;95.30;;;;;;5053454;28;20746;-76
2021/09/12 02:50:23;;;;;;;45.93;28.20;;;17.80;91.30;;;;;;5053757;28;20386;-76
2021/09/12 02:52:49;;;;;;;46.00;28.07;;;17.70;91.60;;;;;;5062546;28;20735;-74
2021/09/12 02:55:15;;;;;;;46.28;25.50;;;17.80;89.30;;;;;;5068037;28;20729;-76
2021/09/12 02:57:41;;;;;;;45.13;23.50;;;17.90;85.20;;;;;;5063131;28;20472;-76
2021/09/12 03:00:07;;;;;;;37.83;23.08;;;17.80;84.50;;;;;;5055845;28;20373;-77
2021/09/12 03:02:33;;;;;;;33.70;22.33;;;17.80;83.90;;;;;;5056706;28;20374;-78
2021/09/12 03:04:58;;;;;;;37.87;22.27;;;17.80;82.80;;;;;;5063689;28;20766;-77
2021/09/12 03:07:24;;;;;;;34.83;22.58;;;17.70;84.80;;;;;;5076685;28;20372;-75
2021/09/12 03:09:49;;;;;;;34.60;21.63;;;17.70;85.90;;;;;;5090161;28;20411;-76
2021/09/12 03:12:15;;;;;;;35.10;21.77;;;17.70;83.00;;;;;;5091975;28;20536;-76
2021/09/12 03:14:40;;;;;;;39.80;22.45;;;17.70;81.30;;;;;;5090822;28;20395;-76
2021/09/12 03:17:06;;;;;;;34.30;21.83;;;17.70;82.70;;;;;;5071391;28;20385;-77
2021/09/12 03:19:31;;;;;;;36.97;21.93;;;17.70;82.70;;;;;;5058709;28;20382;-76
2021/09/12 03:21:57;;;;;;;33.07;22.03;;;17.70;84.30;;;;;;5059505;28;20754;-76
2021/09/12 03:24:22;;;;;;;37.20;22.27;;;17.70;83.30;;;;;;5056995;28;20467;-78
2021/09/12 03:26:48;;;;;;;35.60;20.92;;;17.60;85.80;;;;;;5055009;28;20460;-76
2021/09/12 03:29:14;;;;;;;34.83;20.73;;;17.50;85.70;;;;;;5053278;28;20413;-77
2021/09/12 03:31:39;;;;;;;33.50;20.90;;;17.60;84.10;;;;;;5054165;28;20381;-78
2021/09/12 03:34:05;;;;;;;32.78;18.75;;;17.50;83.90;;;;;;5056870;28;20387;-77
2021/09/12 03:36:30;;;;;;;30.52;19.08;;;17.40;83.20;;;;;;5053823;28;20384;-76
2021/09/12 03:38:56;;;;;;;30.33;18.77;;;17.40;84.30;;;;;;5053796;28;20385;-77
2021/09/12 03:41:22;;;;;;;30.17;18.67;;;17.50;79.60;;;;;;5056052;28;20396;-76
2021/09/12 03:43:47;;;;;;;28.77;17.70;;;17.40;79.20;;;;;;5054057;28;20393;-76
2021/09/12 03:46:13;;;;;;;29.33;17.70;;;17.40;77.50;;;;;;5055993;28;20429;-75
2021/09/12 03:48:38;;;;;;;26.35;17.33;;;17.40;77.60;;;;;;5053994;28;20449;-77
2021/09/12 03:51:04;;;;;;;29.47;16.07;;;17.40;76.90;;;;;;5055335;28;20393;-77
2021/09/12 03:53:30;;;;;;;28.43;16.80;;;17.50;72.10;;;;;;5057810;28;20386;-77
2021/09/12 03:55:55;;;;;;;27.80;16.10;;;17.40;70.30;;;;;;5054454;28;20870;-77
2021/09/12 03:58:21;;;;;;;22.92;14.70;;;17.40;71.60;;;;;;5053328;28;20401;-77
2021/09/12 04:00:46;;;;;;;26.87;16.07;;;17.30;75.00;;;;;;5053381;28;20390;-77
2021/09/12 04:03:12;;;;;;;23.03;15.80;;;17.40;72.50;;;;;;5053954;28;20439;-77
2021/09/12 04:05:37;;;;;;;27.25;16.60;;;17.40;71.60;;;;;;5059146;28;20391;-77
2021/09/12 04:08:03;;;;;;;25.23;15.93;;;17.30;72.60;;;;;;5074761;28;20773;-78
2021/09/12 04:10:29;;;;;;;21.55;14.60;;;17.20;72.20;;;;;;5074184;28;20501;-77
2021/09/12 04:12:54;;;;;;;23.15;13.20;;;17.30;68.20;;;;;;5077037;28;20522;-77
2021/09/12 04:15:20;;;;;;;19.33;12.60;;;17.30;64.50;;;;;;5077213;28;20588;-77
2021/09/12 04:17:45;;;;;;;21.43;12.30;;;17.30;64.40;;;;;;5075392;28;20385;-79
2021/09/12 04:20:12;;;;;;;17.45;11.60;;;17.30;63.40;;;;;;5055033;28;20386;-77
2021/09/12 04:22:37;;;;;;;20.15;11.13;;;17.30;61.50;;;;;;5062316;28;20396;-77
2021/09/12 04:25:03;;;;;;;17.50;10.10;;;17.20;58.40;;;;;;5062251;28;20437;-78
2021/09/12 04:27:29;;;;;;;16.73;9.85;;;17.10;59.40;;;;;;5052999;28;20735;-77
2021/09/12 04:29:54;;;;;;;17.27;10.02;;;17.00;58.30;;;;;;5054946;28;20448;-78
2021/09/12 04:32:20;;;;;;;20.23;10.10;;;16.80;61.20;;;;;;5054197;28;20382;-77
2021/09/12 04:34:47;;;;;;;17.00;9.63;;;16.60;60.30;;;;;;5055024;28;20385;-77
2021/09/12 04:37:14;;;;;;;17.50;9.23;;;16.50;62.40;;;;;;5060570;28;20377;-77
2021/09/12 04:39:40;;;;;;;14.93;8.38;;;16.40;60.30;;;;;;5062287;28;20585;-77
2021/09/12 04:42:05;;;;;;;12.23;8.20;;;16.50;59.90;;;;;;5062912;28;20393;-77
2021/09/12 04:44:31;;;;;;;18.17;8.20;;;16.50;57.50;;;;;;5061069;28;20388;-76
2021/09/12 04:46:57;;;;;;;17.17;8.38;;;16.40;58.30;;;;;;5052582;28;20384;-77
2021/09/12 04:49:22;;;;;;;15.38;8.50;;;16.50;58.90;;;;;;5052472;28;20436;-76
2021/09/12 04:51:48;;;;;;;19.45;8.95;;;16.50;59.10;;;;;;5051826;28;20385;-77
2021/09/12 04:54:13;;;;;;;22.37;9.10;;;16.50;59.00;;;;;;5051849;28;20381;-77
2021/09/12 04:56:39;;;;;;;13.77;7.77;;;16.60;58.30;;;;;;5052206;28;20443;-78
2021/09/12 04:59:05;;;;;;;13.90;8.93;;;16.70;58.20;;;;;;5053530;28;20428;-78
2021/09/12 05:01:32;;;;;;;18.02;8.20;;;16.80;58.10;;;;;;5051858;28;20389;-76
2021/09/12 05:03:58;;;;;;;13.05;8.30;;;16.80;58.20;;;;;;5051410;28;20384;-76
2021/09/12 05:06:23;;;;;;;13.52;8.00;;;16.80;55.90;;;;;;5061381;28;20433;-76
2021/09/12 05:08:49;;;;;;;12.75;7.18;;;16.90;52.70;;;;;;5072262;28;20903;-76
2021/09/12 05:11:14;;;;;;;15.68;7.20;;;17.00;51.30;;;;;;5073456;28;20391;-77
2021/09/12 05:13:40;;;;;;;15.60;7.20;;;17.10;50.70;;;;;;5073202;28;20375;-77
2021/09/12 05:16:06;;;;;;;13.80;7.70;;;17.10;51.60;;;;;;5071726;28;20414;-77
2021/09/12 05:18:31;;;;;;;14.10;7.20;;;17.10;52.20;;;;;;5066051;28;20393;-76
2021/09/12 05:20:57;;;;;;;17.65;7.80;;;17.10;51.80;;;;;;5051396;28;20409;-80
2021/09/12 05:23:22;;;;;;;22.13;8.23;;;17.10;51.70;;;;;;5053364;28;20378;-77
2021/09/12 05:25:50;;;;;;;17.00;7.70;;;17.20;52.00;;;;;;5064561;28;20443;-76
2021/09/12 05:28:16;;;;;;;18.17;7.82;;;17.20;51.90;;;;;;5063963;28;20413;-77
2021/09/12 05:30:42;;;;;;;17.20;7.70;;;17.20;52.30;;;;;;5053490;28;20859;-77
2021/09/12 05:33:07;;;;;;;15.07;7.00;;;17.20;50.00;;;;;;5055826;28;20388;-76
2021/09/12 05:35:33;;;;;;;12.40;6.70;;;17.20;50.00;;;;;;5053906;28;20385;-76
2021/09/12 05:37:59;;;;;;;13.67;6.40;;;17.20;49.50;;;;;;5051536;28;20480;-77
2021/09/12 05:40:24;;;;;;;11.00;6.95;;;17.20;48.20;;;;;;5055747;28;20411;-76
2021/09/12 05:42:50;;;;;;;12.25;6.88;;;17.40;47.20;;;;;;5057483;28;20385;-77
2021/09/12 05:45:15;;;;;;;16.97;7.30;;;17.30;47.70;;;;;;5056477;28;20385;-76
2021/09/12 05:47:41;;;;;;;17.77;7.90;;;17.40;47.90;;;;;;5056425;28;20413;-77
2021/09/12 05:50:07;;;;;;;13.05;7.90;;;17.40;48.70;;;;;;5056788;28;20465;-77
2021/09/12 05:52:33;;;;;;;16.88;8.40;;;17.40;49.00;;;;;;5058432;28;20700;-76
2021/09/12 05:54:59;;;;;;;13.30;7.80;;;17.40;48.40;;;;;;5058897;28;20445;-76
2021/09/12 05:57:25;;;;;;;14.10;8.20;;;17.40;48.70;;;;;;5059632;28;20863;-76
2021/09/12 05:59:50;;;;;;;20.93;8.60;;;17.40;49.40;;;;;;5062613;28;20811;-77
2021/09/12 06:02:16;;;;;;;16.77;9.13;;;17.30;50.10;;;;;;5060759;28;20414;-76
2021/09/12 06:04:43;;;;;;;15.07;9.03;;;17.30;50.20;;;;;;5058664;28;20878;-76
2021/09/12 06:07:08;;;;;;;21.67;9.10;;;17.40;50.30;;;;;;5078746;28;20402;-77
2021/09/12 06:09:34;;;;;;;15.15;8.98;;;17.30;51.10;;;;;;5083473;28;20407;-77
2021/09/12 06:12:00;;;;;;;16.25;9.10;;;17.30;51.70;;;;;;5079106;28;20384;-76
2021/09/12 06:14:25;;;;;;;20.43;9.73;;;17.20;51.20;;;;;;5081327;28;20403;-76
2021/09/12 06:16:51;;;;;;;19.17;10.40;;;17.30;52.30;;;;;;5077687;28;20798;-77
2021/09/12 06:19:16;;;;;;;15.65;9.50;;;17.30;51.10;;;;;;5068018;28;20848;-76
2021/09/12 06:21:42;;;;;;;14.05;9.45;;;17.20;51.90;;;;;;5055117;28;20385;-77
2021/09/12 06:24:08;;;;;;;16.58;10.23;;;17.30;53.10;;;;;;5054287;28;20425;-76
2021/09/12 06:26:33;;;;;;;17.75;9.85;;;17.40;50.20;;;;;;5056000;28;20389;-76
2021/09/12 06:28:59;;;;;;;18.13;10.43;;;17.40;50.90;;;;;;5056186;28;20486;-77
2021/09/12 06:31:26;;;;;;;16.67;9.70;;;17.40;50.70;;;;;;5055388;28;20881;-76
2021/09/12 06:33:52;;;;;;;19.73;10.20;;;17.40;51.30;;;;;;5056537;28;20391;-76
2021/09/12 06:36:18;;;;;;;21.47;9.87;;;17.40;51.00;;;;;;5058278;28;20463;-77
2021/09/12 06:38:45;;;;;;;19.00;10.53;;;17.50;50.80;;;;;;5056503;28;20412;-77
2021/09/12 06:41:11;;;;;;;17.90;9.90;;;17.60;51.30;;;;;;5057261;28;20392;-77
2021/09/12 06:43:37;;;;;;;17.35;9.90;;;18.00;48.20;;;;;;5056250;28;20386;-77
2021/09/12 06:46:03;;;;;;;18.35;10.32;;;18.00;47.10;;;;;;5057534;28;20399;-77
2021/09/12 06:48:28;;;;;;;16.80;9.80;;;18.00;47.10;;;;;;5057448;28;20488;-77
2021/09/12 06:50:57;;;;;;;14.82;8.93;;;18.10;46.90;;;;;;5054536;28;20795;-78
2021/09/12 06:53:23;;;;;;;23.55;10.60;;;18.10;46.50;;;;;;5058369;28;20381;-78
2021/09/12 06:55:48;;;;;;;18.75;10.05;;;18.10;45.70;;;;;;5056433;28;20763;-77
2021/09/12 06:58:14;;;;;;;18.20;9.70;;;18.30;46.70;;;;;;5055815;28;20389;-76
2021/09/12 07:00:40;;;;;;;13.23;8.60;;;18.30;43.30;;;;;;5053238;28;20403;-77
2021/09/12 07:03:06;;;;;;;17.23;9.75;;;18.40;42.50;;;;;;5045234;28;20398;-78
2021/09/12 07:05:32;;;;;;;19.77;8.80;;;18.40;42.80;;;;;;5048996;28;20880;-75
2021/09/12 07:07:57;;;;;;;18.43;9.40;;;18.30;42.50;;;;;;5081976;28;20407;-77
2021/09/12 07:10:23;;;;;;;20.27;9.52;;;18.30;43.00;;;;;;5038211;28;20401;-77
2021/09/12 07:12:48;;;;;;;20.27;9.23;;;18.20;44.20;;;;;;5037678;28;20387;-77
2021/09/12 07:15:14;;;;;;;20.55;9.35;;;18.30;43.40;;;;;;5061680;28;20591;-77
2021/09/12 07:17:40;;;;;;;14.52;8.63;;;18.10;42.80;;;;;;5049278;28;20387;-77
2021/09/12 07:20:06;;;;;;;17.70;9.18;;;18.20;43.10;;;;;;5047649;28;20395;-77
2021/09/12 07:22:32;;;;;;;17.70;8.32;;;18.20;42.30;;;;;;5054137;28;20387;-77
2021/09/12 07:24:57;;;;;;;14.95;8.63;;;18.30;42.20;;;;;;5049414;28;20383;-79
2021/09/12 07:27:23;;;;;;;17.63;9.27;;;18.70;40.50;;;;;;5041906;28;20416;-77
2021/09/12 07:29:49;;;;;;;16.87;8.77;;;18.50;40.70;;;;;;5055675;28;20459;-78
2021/09/12 07:32:15;;;;;;;17.93;8.50;;;18.50;40.90;;;;;;5055465;28;20782;-78
2021/09/12 07:34:40;;;;;;;19.52;9.40;;;18.50;40.90;;;;;;5055092;28;20377;-78
2021/09/12 07:37:06;;;;;;;15.85;8.27;;;18.70;40.20;;;;;;5053867;28;20397;-77
2021/09/12 07:39:32;;;;;;;13.98;8.40;;;18.80;39.70;;;;;;5054893;28;20389;-77
2021/09/12 07:41:58;;;;;;;12.75;8.20;;;18.70;39.20;;;;;;5054312;28;20476;-77
2021/09/12 07:44:23;;;;;;;16.00;9.02;;;18.80;40.30;;;;;;5060312;28;20401;-77
2021/09/12 07:46:49;;;;;;;15.00;8.20;;;19.00;39.20;;;;;;5062902;28;20456;-77
2021/09/12 07:49:15;;;;;;;14.60;6.73;;;19.10;37.50;;;;;;5049118;28;20415;-75
2021/09/12 07:51:40;;;;;;;18.40;7.13;;;19.10;36.40;;;;;;5066522;28;20393;-75
2021/09/12 07:54:06;;;;;;;13.18;6.30;;;18.90;36.70;;;;;;5066004;28;20382;-76
2021/09/12 07:56:32;;;;;;;13.85;7.15;;;18.50;37.30;;;;;;5060395;28;20388;-75
2021/09/12 07:58:57;;;;;;;13.17;7.33;;;18.40;37.80;;;;;;5057654;28;20426;-76
2021/09/12 08:01:23;;;;;;;15.17;6.97;;;18.50;38.60;;;;;;5055639;28;20424;-78
2021/09/12 08:03:48;;;;;;;14.18;6.65;;;18.50;38.90;;;;;;5063091;28;20401;-75
2021/09/12 08:06:14;;;;;;;14.27;5.90;;;18.50;38.10;;;;;;5074453;28;20404;-76
2021/09/12 08:08:39;;;;;;;10.83;6.70;;;18.40;37.80;;;;;;5078261;28;20476;-76
2021/09/12 08:11:05;;;;;;;9.68;6.20;;;18.50;37.70;;;;;;5065849;28;20881;-78
2021/09/12 08:13:30;;;;;;;12.70;5.47;;;18.80;37.60;;;;;;5054540;28;20482;-77
2021/09/12 08:15:56;;;;;;;8.97;5.27;;;19.00;35.20;;;;;;5053779;28;20389;-76
2021/09/12 08:18:23;;;;;;;11.65;5.10;;;19.20;34.50;;;;;;5050739;28;20404;-77
2021/09/12 08:20:49;;;;;;;13.50;5.03;;;19.50;33.10;;;;;;5053769;28;20407;-76
2021/09/12 08:23:14;;;;;;;8.65;4.70;;;19.60;32.70;;;;;;5052591;28;20403;-76
2021/09/12 08:25:40;;;;;;;9.02;5.10;;;19.80;31.70;;;;;;5052244;28;20456;-75
2021/09/12 08:28:06;;;;;;;11.35;4.60;;;20.10;31.20;;;;;;5053411;28;20412;-77
2021/09/12 08:30:31;;;;;;;10.47;4.87;;;20.30;29.80;;;;;;5056693;28;20910;-76
2021/09/12 08:32:57;;;;;;;8.40;4.50;;;20.20;30.30;;;;;;5057243;28;20399;-78
2021/09/12 08:35:23;;;;;;;8.85;4.30;;;20.40;30.60;;;;;;5059961;28;20381;-77
2021/09/12 08:37:48;;;;;;;8.15;5.40;;;20.60;29.80;;;;;;5058128;28;20500;-77
2021/09/12 08:40:16;;;;;;;13.05;5.53;;;20.50;29.40;;;;;;5053353;28;20491;-75
2021/09/12 08:42:42;;;;;;;11.00;5.20;;;20.60;29.60;;;;;;5051920;28;20408;-78
2021/09/12 08:45:09;;;;;;;9.95;4.72;;;20.60;28.60;;;;;;5059769;28;20750;-75
2021/09/12 08:47:34;;;;;;;9.05;4.72;;;20.70;28.70;;;;;;5052409;28;20398;-75
2021/09/12 08:50:00;;;;;;;11.57;4.95;;;21.00;27.80;;;;;;5034694;28;20706;-76
2021/09/12 08:52:26;;;;;;;8.83;4.90;;;21.00;28.10;;;;;;5049141;28;20401;-75
2021/09/12 08:54:51;;;;;;;9.33;4.30;;;20.80;27.70;;;;;;5057474;28;20381;-76
2021/09/12 08:57:17;;;;;;;13.98;4.95;;;20.70;27.90;;;;;;5057425;28;20401;-76
2021/09/12 08:59:49;;;;;;;9.80;4.82;;;20.50;28.40;;;;;;5054017;28;20399;-75
2021/09/12 09:02:15;;;;;;;8.25;4.80;;;20.40;28.60;;;;;;5038944;28;20398;-76
2021/09/12 09:04:41;;;;;;;7.30;5.18;;;20.40;28.40;;;;;;5042617;28;20503;-75
2021/09/12 09:07:08;;;;;;;10.43;4.95;;;20.40;28.50;;;;;;5059862;28;20900;-75
2021/09/12 09:09:41;;;;;;;10.48;5.13;;;20.50;29.10;;;;;;5054224;28;20488;-75
2021/09/12 09:12:30;;;;;;;7.45;4.90;;;20.30;30.00;;;;;;5037956;28;20383;-75
2021/09/12 09:15:16;;;;;;;6.35;4.82;;;20.20;30.50;;;;;;5054992;28;20980;-74
2021/09/12 09:17:50;;;;;;;10.50;4.70;;;20.40;30.50;;;;;;5055143;28;20394;-74
2021/09/12 09:20:26;;;;;;;12.07;5.30;;;20.30;29.10;;;;;;5045773;28;20383;-75
2021/09/12 09:22:52;;;;;;;9.38;3.92;;;20.30;28.70;;;;;;5050902;28;20419;-76
2021/09/12 09:25:24;;;;;;;5.10;3.53;;;20.50;26.00;;;;;;5052700;28;20396;-73
2021/09/12 09:28:09;;;;;;;7.18;3.67;;;20.50;26.70;;;;;;5052431;28;20739;-74
2021/09/12 09:30:57;;;;;;;5.30;3.35;;;20.60;26.10;;;;;;5050650;28;20913;-73
2021/09/12 09:33:24;;;;;;;4.50;3.20;;;20.50;26.20;;;;;;5051735;28;20389;-73
2021/09/12 09:35:54;;;;;;;3.27;2.77;;;20.60;25.70;;;;;;5037042;28;20399;-74
2021/09/12 09:38:22;;;;;;;6.80;3.50;;;20.70;24.70;;;;;;5047401;28;20428;-74
2021/09/12 09:41:12;;;;;;;5.60;3.63;;;20.80;25.30;;;;;;5049865;28;20496;-74
2021/09/12 09:43:43;;;;;;;7.72;3.80;;;21.00;24.40;;;;;;5051506;28;20381;-76
2021/09/12 09:46:38;;;;;;;6.43;3.95;;;21.10;24.10;;;;;;5040034;28;20425;-77
2021/09/12 09:49:24;;;;;;;7.30;3.40;;;21.20;23.40;;;;;;5033767;28;20851;-76
2021/09/12 09:51:52;;;;;;;6.95;3.42;;;21.20;23.90;;;;;;5049911;28;20401;-75
2021/09/12 09:54:19;;;;;;;6.88;3.88;;;21.20;23.20;;;;;;5049462;28;20381;-74
2021/09/12 09:56:46;;;;;;;5.40;3.80;;;21.20;24.10;;;;;;5050196;28;20409;-73
2021/09/12 09:59:16;;;;;;;9.38;3.97;;;21.20;24.20;;;;;;5050580;28;20421;-75
2021/09/12 10:01:44;;;;;;;9.30;3.60;;;21.30;22.40;;;;;;5050393;28;20394;-76
2021/09/12 10:04:12;;;;;;;5.30;3.50;;;21.40;22.60;;;;;;5051087;28;20518;-75
2021/09/12 10:06:39;;;;;;;7.18;3.60;;;21.50;22.40;;;;;;5064002;28;20388;-76
2021/09/12 10:09:07;;;;;;;6.30;2.90;;;21.50;22.40;;;;;;5050101;28;20408;-75
2021/09/12 10:11:33;;;;;;;4.55;3.00;;;21.60;21.50;;;;;;5052152;28;20392;-75
2021/09/12 10:13:59;;;;;;;5.57;3.30;;;21.60;21.90;;;;;;5034159;28;20391;-76
2021/09/12 10:16:26;;;;;;;7.55;3.30;;;22.20;21.30;;;;;;5032147;28;20395;-75
2021/09/12 10:18:51;;;;;;;5.50;2.97;;;22.30;20.00;;;;;;5046797;28;20398;-74
2021/09/12 10:21:23;;;;;;;5.17;2.40;;;22.40;19.70;;;;;;5033957;28;20395;-75
2021/09/12 10:23:56;;;;;;;7.65;3.67;;;22.20;19.40;;;;;;5048567;28;20393;-75
2021/09/12 10:26:30;;;;;;;6.70;3.40;;;21.90;19.60;;;;;;5057240;28;20393;-75
2021/09/12 10:28:56;;;;;;;4.67;3.20;;;21.90;20.20;;;;;;5056348;28;20402;-75
2021/09/12 10:31:33;;;;;;;4.90;2.50;;;22.20;19.70;;;;;;5056481;28;20394;-74
2021/09/12 10:34:10;;;;;;;5.10;2.60;;;22.00;18.20;;;;;;5034994;28;20384;-75
2021/09/12 10:36:38;;;;;;;4.65;2.80;;;22.00;18.60;;;;;;5035864;28;20395;-74
2021/09/12 10:39:27;;;;;;;4.43;3.00;;;21.90;18.60;;;;;;5043006;28;20401;-74
2021/09/12 10:42:14;;;;;;;5.18;2.83;;;21.80;18.80;;;;;;5044134;28;20492;-74
2021/09/12 10:44:40;;;;;;;3.28;2.70;;;21.90;19.00;;;;;;5037790;28;20401;-75
2021/09/12 10:47:07;;;;;;;5.57;2.83;;;22.00;19.30;;;;;;5036876;28;20888;-75
2021/09/12 10:49:33;;;;;;;7.35;3.15;;;22.30;19.10;;;;;;5034676;28;21039;-74
2021/09/12 10:51:58;;;;;;;7.90;3.40;;;22.30;19.00;;;;;;5054097;28;20397;-75
2021/09/12 10:54:24;;;;;;;5.35;2.70;;;22.50;18.70;;;;;;5054416;28;20384;-75
2021/09/12 10:57:07;;;;;;;5.03;2.70;;;22.60;18.10;;;;;;5047095;28;20389;-75
2021/09/12 10:59:33;;;;;;;6.22;2.58;;;22.50;17.00;;;;;;5053562;28;20487;-76
2021/09/12 11:01:59;;;;;;;4.65;2.83;;;22.40;16.50;;;;;;5052722;28;20797;-75
2021/09/12 11:04:33;;;;;;;5.33;2.80;;;22.60;17.10;;;;;;5045380;28;20419;-76
2021/09/12 11:07:05;;;;;;;4.95;2.72;;;22.80;17.20;;;;;;5065254;28;20400;-75
2021/09/12 11:09:32;;;;;;;6.20;2.80;;;22.90;17.00;;;;;;5062953;28;21042;-75
2021/09/12 11:11:59;;;;;;;4.15;2.88;;;23.10;17.30;;;;;;5053877;28;20387;-75
2021/09/12 11:14:26;;;;;;;5.68;2.80;;;23.30;16.90;;;;;;5052275;28;20389;-75
2021/09/12 11:16:52;;;;;;;7.57;2.50;;;23.40;16.80;;;;;;5053146;28;20859;-77
2021/09/12 11:19:18;;;;;;;5.57;2.87;;;23.10;15.80;;;;;;5051417;28;20455;-73
2021/09/12 11:21:46;;;;;;;5.40;2.72;;;22.70;16.60;;;;;;5032863;28;20402;-74
2021/09/12 11:24:24;;;;;;;2.80;2.40;;;22.50;17.60;;;;;;5044583;28;20391;-75
2021/09/12 11:26:49;;;;;;;4.25;2.63;;;22.60;17.70;;;;;;5031850;28;20421;-74
2021/09/12 11:29:22;;;;;;;5.20;2.40;;;22.60;16.70;;;;;;5038934;28;20490;-76
2021/09/12 11:31:52;;;;;;;5.55;2.50;;;22.40;17.10;;;;;;5052562;28;20469;-74
2021/09/12 11:34:20;;;;;;;7.68;3.00;;;22.20;17.50;;;;;;5047987;28;20754;-76
2021/09/12 11:37:02;;;;;;;6.38;2.83;;;22.30;18.30;;;;;;5050916;28;20871;-76
2021/09/12 11:39:36;;;;;;;3.75;2.70;;;22.50;17.60;;;;;;5052280;28;20489;-75
2021/09/12 11:42:05;;;;;;;4.53;2.70;;;22.70;16.90;;;;;;5052152;28;20405;-75
2021/09/12 11:44:34;;;;;;;4.33;2.80;;;22.80;17.20;;;;;;5052601;28;20498;-74
2021/09/12 11:47:00;;;;;;;3.78;2.70;;;22.70;17.60;;;;;;5051875;28;20389;-75
2021/09/12 11:49:26;;;;;;;4.90;2.53;;;22.60;16.70;;;;;;5052499;28;20493;-74
2021/09/12 11:51:52;;;;;;;6.28;2.55;;;22.40;17.30;;;;;;5051789;28;20429;-73
2021/09/12 11:54:27;;;;;;;6.80;2.80;;;22.20;17.30;;;;;;5052162;28;20904;-75
2021/09/12 11:57:09;;;;;;;6.45;2.90;;;22.10;18.00;;;;;;5055497;28;20560;-77
2021/09/12 11:59:43;;;;;;;3.70;3.03;;;22.30;17.40;;;;;;5053063;28;20413;-76
2021/09/12 12:02:13;;;;;;;4.50;2.50;;;22.50;18.00;;;;;;5046233;28;20808;-75
2021/09/12 12:04:41;;;;;;;3.67;2.40;;;22.70;16.20;;;;;;4991440;28;20899;-74
2021/09/12 12:07:07;;;;;;;4.65;2.60;;;22.90;17.10;;;;;;4985917;28;20408;-75
2021/09/12 12:09:43;;;;;;;3.30;2.70;;;23.00;15.90;;;;;;4991920;28;20407;-76
2021/09/12 12:12:14;;;;;;;5.53;2.90;;;23.30;15.90;;;;;;4994686;28;20487;-76
2021/09/12 12:14:48;;;;;;;5.38;2.80;;;23.80;15.50;;;;;;4989233;28;20436;-76
2021/09/12 12:17:17;;;;;;;4.53;2.30;;;24.00;14.90;;;;;;4984346;28;20483;-75
2021/09/12 12:19:43;;;;;;;5.68;2.80;;;24.00;14.30;;;;;;4995512;28;20403;-76
2021/09/12 12:22:10;;;;;;;4.10;2.90;;;23.90;14.90;;;;;;4999723;28;20394;-77
2021/09/12 12:24:38;;;;;;;6.53;3.50;;;23.90;15.50;;;;;;5002372;28;20397;-76
2021/09/12 12:27:10;;;;;;;7.88;2.67;;;23.70;15.80;;;;;;5001331;28;20403;-75
2021/09/12 12:29:40;;;;;;;3.92;2.28;;;23.50;15.00;;;;;;4998923;28;20438;-76
2021/09/12 12:32:07;;;;;;;4.05;2.60;;;23.00;15.50;;;;;;5000006;28;20394;-77
2021/09/12 12:34:42;;;;;;;6.75;2.95;;;22.70;15.90;;;;;;4989700;28;20444;-77
2021/09/12 12:37:10;;;;;;;5.45;2.53;;;22.50;17.10;;;;;;4995374;28;20398;-76